Time;durP1;ratioP1;P1;durP2;ratioP2;P2;SDS_P1;SDS_P2;PMS_P1;PMS_P2;Temp;Humidity;BMP_temperature;BMP_pressure;BME280_temperature;BME280_humidity;BME280_pressure;Samples;Min_cycle;Max_cycle;Signal;HPM_P1;HPM_P2
2022/05/30 00:00:25;;;;;;;4.75;2.40;;;;;;;16.01;nan;98901.53;5016346;28;20102;-79
2022/05/30 00:02:51;;;;;;;2.42;2.20;;;;;;;15.96;nan;98894.94;5016518;28;20030;-78
2022/05/30 00:05:17;;;;;;;2.30;2.05;;;;;;;15.97;nan;98899.25;5016158;28;20057;-79
2022/05/30 00:07:43;;;;;;;4.80;2.90;;;;;;;15.93;nan;98900.66;5016373;28;20030;-78
2022/05/30 00:10:11;;;;;;;2.97;2.63;;;;;;;15.93;nan;98898.00;5015884;28;20044;-79
2022/05/30 00:12:37;;;;;;;4.22;2.70;;;;;;;15.94;nan;98894.34;5015635;28;20756;-77
2022/05/30 00:15:04;;;;;;;3.83;3.00;;;;;;;15.93;nan;98898.00;5016279;28;20040;-77
2022/05/30 00:17:30;;;;;;;3.25;2.35;;;;;;;15.94;nan;98893.50;5016220;28;20168;-79
2022/05/30 00:19:55;;;;;;;3.00;2.70;;;;;;;15.94;nan;98894.34;5016279;28;20116;-79
2022/05/30 00:22:21;;;;;;;2.97;2.60;;;;;;;15.93;nan;98897.19;5016245;28;20033;-79
2022/05/30 00:24:46;;;;;;;3.92;2.70;;;;;;;15.90;nan;98902.91;5015854;28;20061;-79
2022/05/30 00:27:12;;;;;;;3.70;3.30;;;;;;;15.85;nan;98894.66;5016119;28;20037;-77
2022/05/30 00:29:39;;;;;;;4.80;2.70;;;;;;;15.80;nan;98899.72;5016073;28;20026;-78
2022/05/30 00:32:06;;;;;;;3.47;2.78;;;;;;;15.81;nan;98899.53;5014965;28;20474;-79
2022/05/30 00:34:32;;;;;;;3.78;2.80;;;;;;;15.81;nan;98896.88;5016147;28;20068;-79
2022/05/30 00:36:58;;;;;;;3.72;2.50;;;;;;;15.81;nan;98899.53;5016278;28;20061;-78
2022/05/30 00:39:24;;;;;;;3.08;2.70;;;;;;;15.79;nan;98890.91;5011680;28;20072;-79
2022/05/30 00:41:49;;;;;;;3.42;2.88;;;;;;;15.76;nan;98890.50;5012717;28;20057;-79
2022/05/30 00:44:15;;;;;;;2.88;2.67;;;;;;;15.75;nan;98892.31;5011800;28;20044;-78
2022/05/30 00:46:40;;;;;;;3.60;2.40;;;;;;;15.76;nan;98891.31;5012946;28;20454;-79
2022/05/30 00:49:10;;;;;;;4.18;2.65;;;;;;;15.76;nan;98896.63;5013190;28;20413;-79
2022/05/30 00:51:49;;;;;;;2.70;2.22;;;;;;;15.78;nan;98899.13;5011690;28;20118;-79
2022/05/30 00:54:27;;;;;;;3.72;2.67;;;;;;;15.79;nan;98901.56;5011892;28;20434;-79
2022/05/30 00:56:55;;;;;;;3.00;2.72;;;;;;;15.78;nan;98893.78;5012358;28;20026;-79
2022/05/30 00:59:21;;;;;;;4.38;2.47;;;;;;;15.75;nan;98894.16;5008882;28;20124;-79
2022/05/30 01:01:47;;;;;;;4.00;2.88;;;;;;;15.72;nan;98895.38;5010394;28;20125;-79
2022/05/30 01:07:04;;;;;;;3.05;2.25;;;;;;;15.70;nan;98896.56;5009136;28;20052;-80
2022/05/30 01:09:37;;;;;;;2.97;2.70;;;;;;;15.66;nan;98896.16;5009165;28;20076;-79
2022/05/30 01:12:08;;;;;;;2.70;2.50;;;;;;;15.64;nan;98894.69;5008887;28;20022;-79
2022/05/30 01:14:37;;;;;;;3.20;2.33;;;;;;;15.60;nan;98896.91;5007188;28;20121;-79
2022/05/30 01:17:09;;;;;;;2.78;2.55;;;;;;;15.57;nan;98903.41;5007733;28;20033;-79
2022/05/30 01:19:59;;;;;;;5.75;2.28;;;;;;;15.53;nan;98896.03;5007849;28;20088;-81
2022/05/30 01:22:42;;;;;;;3.17;2.53;;;;;;;15.52;nan;98899.69;5011302;28;20842;-78
2022/05/30 01:25:28;;;;;;;4.63;2.78;;;;;;;15.50;nan;98896.34;5008358;28;20030;-79
2022/05/30 01:28:31;;;;;;;;;;;;;;;15.48;nan;98887.75;5015330;28;20037;-78
2022/05/30 01:30:57;;;;;;;3.35;2.38;;;;;;;15.48;nan;98885.94;5011002;28;20377;-79
2022/05/30 01:33:23;;;;;;;4.63;2.45;;;;;;;15.48;nan;98893.91;5010812;28;20141;-78
2022/05/30 01:35:49;;;;;;;3.08;2.50;;;;;;;15.46;nan;98889.78;5010951;28;20072;-78
2022/05/30 01:38:15;;;;;;;3.92;3.22;;;;;;;15.45;nan;98893.44;5010986;28;20117;-78
2022/05/30 01:40:43;;;;;;;3.78;2.58;;;;;;;15.42;nan;98891.19;5010732;28;20037;-79
2022/05/30 01:43:09;;;;;;;2.83;2.55;;;;;;;15.41;nan;98897.50;4993769;28;20117;-78
2022/05/30 01:45:37;;;;;;;3.17;2.78;;;;;;;15.41;nan;98892.19;5009902;28;20478;-78
2022/05/30 01:48:02;;;;;;;3.40;2.78;;;;;;;15.40;nan;98890.53;5011754;28;20030;-79
2022/05/30 01:50:29;;;;;;;3.63;2.47;;;;;;;15.40;nan;98895.84;5009110;28;20057;-78
2022/05/30 01:52:56;;;;;;;4.32;3.33;;;;;;;15.37;nan;98886.44;5010456;28;20121;-78
2022/05/30 01:55:41;;;;;;;3.05;2.72;;;;;;;15.34;nan;98885.97;5009314;28;20042;-79
2022/05/30 01:58:09;;;;;;;3.58;2.70;;;;;;;15.31;nan;98886.38;5011672;28;20367;-78
2022/05/30 02:00:36;;;;;;;3.95;2.65;;;;;;;15.28;nan;98884.06;5011193;28;20087;-79
2022/05/30 02:03:03;;;;;;;5.10;3.17;;;;;;;15.25;nan;98881.81;5010293;28;20084;-79
2022/05/30 02:05:30;;;;;;;3.35;2.97;;;;;;;15.22;nan;98882.16;5009933;28;20038;-78
2022/05/30 02:07:57;;;;;;;7.50;3.25;;;;;;;15.20;nan;98879.69;5010215;28;20390;-79
2022/05/30 02:10:25;;;;;;;6.72;4.03;;;;;;;15.18;nan;98875.59;5010067;28;20113;-78
2022/05/30 02:12:53;;;;;;;6.10;3.42;;;;;;;15.13;nan;98874.34;4993654;28;20086;-78
2022/05/30 02:15:23;;;;;;;4.25;3.53;;;;;;;15.06;nan;98873.44;5009526;28;20037;-78
2022/05/30 02:17:54;;;;;;;5.20;3.35;;;;;;;14.99;nan;98875.19;5009881;28;20034;-78
2022/05/30 02:20:19;;;;;;;5.95;3.83;;;;;;;14.97;nan;98879.03;5009747;28;20031;-78
2022/05/30 02:22:45;;;;;;;3.55;3.20;;;;;;;14.92;nan;98876.94;5010372;28;20049;-78
2022/05/30 02:25:12;;;;;;;3.60;3.30;;;;;;;14.88;nan;98891.63;5011341;28;20073;-79
2022/05/30 02:27:39;;;;;;;6.28;3.85;;;;;;;14.87;nan;98889.13;5009819;28;20034;-78
2022/05/30 02:30:05;;;;;;;5.07;3.50;;;;;;;14.87;nan;98884.66;5009322;28;20040;-79
2022/05/30 02:32:31;;;;;;;3.47;3.15;;;;;;;14.86;nan;98898.94;5010741;28;20101;-78
2022/05/30 02:37:41;;;;;;;3.80;3.50;;;;;;;14.84;nan;98906.28;5008366;28;20036;-78
2022/05/30 02:40:32;;;;;;;4.05;3.65;;;;;;;14.84;nan;98906.28;5017376;28;20202;-78
2022/05/30 02:43:16;;;;;;;5.30;3.88;;;;;;;14.85;nan;98902.59;5008908;28;20044;-78
2022/05/30 02:45:44;;;;;;;3.90;3.60;;;;;;;14.87;nan;98905.06;5009075;28;20030;-79
2022/05/30 02:48:11;;;;;;;5.00;3.70;;;;;;;14.85;nan;98912.38;5009058;28;20064;-78
2022/05/30 02:50:36;;;;;;;5.97;4.07;;;;;;;14.79;nan;98924.56;5008991;28;20054;-79
2022/05/30 02:53:03;;;;;;;6.05;3.85;;;;;;;14.74;nan;98914.53;5009334;28;20029;-78
2022/05/30 02:55:47;;;;;;;4.75;3.80;;;;;;;14.72;nan;98913.06;5009095;28;20084;-79
2022/05/30 02:58:13;;;;;;;4.22;3.47;;;;;;;14.69;nan;98924.88;5009196;28;20435;-79
2022/05/30 03:00:38;;;;;;;3.78;3.47;;;;;;;14.67;nan;98920.75;5009185;28;20041;-78
2022/05/30 03:03:05;;;;;;;6.40;2.92;;;;;;;14.61;nan;98918.81;5008531;28;20024;-79
2022/05/30 03:05:30;;;;;;;3.90;3.50;;;;;;;14.55;nan;98932.84;5004939;28;20038;-78
2022/05/30 03:07:57;;;;;;;3.70;3.00;;;;;;;14.51;nan;98928.91;5009299;28;20390;-78
2022/05/30 03:10:55;;;;;;;4.28;3.03;;;;;;;14.54;nan;98931.22;5019331;28;20034;-78
2022/05/30 03:13:20;;;;;;;4.80;3.85;;;;;;;14.53;nan;98929.56;5009871;28;20092;-78
2022/05/30 03:15:46;;;;;;;7.28;4.55;;;;;;;14.55;nan;98935.50;5010590;28;20116;-78
2022/05/30 03:18:11;;;;;;;6.43;3.40;;;;;;;14.54;nan;98934.69;4992343;28;20045;-78
2022/05/30 03:20:38;;;;;;;4.10;3.70;;;;;;;14.56;nan;98934.47;5009924;28;20034;-78
2022/05/30 03:23:05;;;;;;;4.57;3.60;;;;;;;14.57;nan;98936.13;5009067;28;20033;-78
2022/05/30 03:25:56;;;;;;;5.28;3.75;;;;;;;14.58;nan;98932.47;5008456;28;20050;-78
2022/05/30 03:28:25;;;;;;;5.93;3.45;;;;;;;14.58;nan;98937.78;4992506;28;20684;-78
2022/05/30 03:30:51;;;;;;;8.52;3.78;;;;;;;14.57;nan;98936.97;4992643;28;20116;-78
2022/05/30 03:33:17;;;;;;;6.00;3.80;;;;;;;14.55;nan;98933.66;4990401;28;20549;-78
2022/05/30 03:35:43;;;;;;;4.22;3.83;;;;;;;14.52;nan;98928.72;5008638;28;20060;-78
2022/05/30 03:38:28;;;;;;;10.30;4.20;;;;;;;14.41;nan;98933.66;5008676;28;20112;-79
2022/05/30 03:41:25;;;;;;;5.35;4.20;;;;;;;14.30;nan;98935.75;5009470;28;20041;-79
2022/05/30 03:44:17;;;;;;;3.97;3.67;;;;;;;14.27;nan;98936.09;5009599;28;20070;-79
2022/05/30 03:46:43;;;;;;;3.95;3.63;;;;;;;14.30;nan;98929.59;5008800;28;20064;-78
2022/05/30 03:49:08;;;;;;;4.88;4.45;;;;;;;14.33;nan;98940.66;5009539;28;20030;-79
2022/05/30 03:51:34;;;;;;;4.60;4.10;;;;;;;14.30;nan;98948.19;5008303;28;20605;-79
2022/05/30 03:54:03;;;;;;;4.60;4.30;;;;;;;14.31;nan;98942.66;5004752;28;20084;-79
2022/05/30 03:56:33;;;;;;;6.38;4.70;;;;;;;14.32;nan;98949.63;5005094;28;20037;-79
2022/05/30 03:58:58;;;;;;;5.95;5.32;;;;;;;14.34;nan;98950.28;5008496;28;20566;-79
2022/05/30 04:01:24;;;;;;;6.03;5.50;;;;;;;14.38;nan;98949.94;5008578;28;20076;-79
2022/05/30 04:03:50;;;;;;;7.35;5.97;;;;;;;14.41;nan;98946.94;5008326;28;20113;-79
2022/05/30 04:06:16;;;;;;;9.65;5.88;;;;;;;14.44;nan;98951.88;5008289;28;20121;-79
2022/05/30 04:08:41;;;;;;;6.30;5.57;;;;;;;14.46;nan;98944.56;5008473;28;20034;-79
2022/05/30 04:11:42;;;;;;;6.85;5.63;;;;;;;14.48;nan;98953.19;5016632;28;20371;-79
2022/05/30 04:14:52;;;;;;;6.38;5.82;;;;;;;14.55;nan;98954.09;5010595;28;20078;-79
2022/05/30 04:17:22;;;;;;;6.32;5.53;;;;;;;14.54;nan;98952.44;5012098;28;20034;-79
2022/05/30 04:19:48;;;;;;;7.00;6.30;;;;;;;14.53;nan;98950.78;5013392;28;20034;-78
2022/05/30 04:22:13;;;;;;;7.97;6.78;;;;;;;14.51;nan;98955.44;5013198;28;20483;-79
2022/05/30 04:25:06;;;;;;;6.78;6.07;;;;;;;14.53;nan;98961.41;5009597;28;20053;-79
2022/05/30 04:27:32;;;;;;;6.03;5.45;;;;;;;14.55;nan;98948.78;5009552;28;20026;-79
2022/05/30 04:29:58;;;;;;;8.20;6.57;;;;;;;14.59;nan;98960.69;4995632;28;20038;-78
2022/05/30 04:32:26;;;;;;;7.45;5.95;;;;;;;14.61;nan;98958.66;5012140;28;20037;-78
2022/05/30 04:34:53;;;;;;;9.02;6.45;;;;;;;14.62;nan;98966.44;5011951;28;20056;-79
2022/05/30 04:37:20;;;;;;;6.85;6.35;;;;;;;14.65;nan;98959.94;5011369;28;20445;-78
2022/05/30 04:39:49;;;;;;;8.38;6.22;;;;;;;14.67;nan;98963.22;5011840;28;20029;-79
2022/05/30 04:42:33;;;;;;;8.20;6.78;;;;;;;14.67;nan;98963.22;5009864;28;20075;-79
2022/05/30 04:45:19;;;;;;;8.13;6.28;;;;;;;14.67;nan;98960.56;5009646;28;20179;-79
2022/05/30 04:48:01;;;;;;;6.78;6.13;;;;;;;14.72;nan;98974.16;5011947;28;20095;-79
2022/05/30 04:50:26;;;;;;;9.57;6.45;;;;;;;14.76;nan;98967.47;4995302;28;20397;-79
2022/05/30 04:52:52;;;;;;;8.32;6.78;;;;;;;14.84;nan;98967.38;5011208;28;20041;-79
2022/05/30 04:55:49;;;;;;;7.60;6.90;;;;;;;14.90;nan;98973.78;5011743;28;20029;-79
2022/05/30 04:58:36;;;;;;;7.38;6.28;;;;;;;14.88;nan;98973.97;5011408;28;20042;-79
2022/05/30 05:01:19;;;;;;;8.05;7.20;;;;;;;14.87;nan;98974.13;5010650;28;20042;-79
2022/05/30 05:03:45;;;;;;;7.63;6.93;;;;;;;14.89;nan;98972.13;5011793;28;20513;-80
2022/05/30 05:06:15;;;;;;;9.40;6.70;;;;;;;14.81;nan;98970.38;5011213;28;20108;-79
2022/05/30 05:09:17;;;;;;;8.30;7.25;;;;;;;14.73;nan;98971.28;5011290;28;20030;-79
2022/05/30 05:11:58;;;;;;;7.15;6.50;;;;;;;14.79;nan;98972.38;5012767;28;20038;-80
2022/05/30 05:14:42;;;;;;;8.77;6.88;;;;;;;14.76;nan;98967.47;5010017;28;20088;-79
2022/05/30 05:17:26;;;;;;;7.50;6.80;;;;;;;14.86;nan;98983.94;5012682;28;20048;-78
2022/05/30 05:19:51;;;;;;;7.68;6.95;;;;;;;14.91;nan;98981.53;5011522;28;20031;-78
2022/05/30 05:22:17;;;;;;;9.00;7.00;;;;;;;15.06;nan;98985.03;5012092;28;20065;-79
2022/05/30 05:24:43;;;;;;;7.25;6.57;;;;;;;15.14;nan;98992.06;5010898;28;20532;-80
2022/05/30 05:27:15;;;;;;;7.00;6.35;;;;;;;15.07;nan;98992.00;5012573;28;20156;-78
2022/05/30 05:29:40;;;;;;;6.80;6.10;;;;;;;15.03;nan;99001.31;5010777;28;20037;-79
2022/05/30 05:32:09;;;;;;;6.40;5.82;;;;;;;15.07;nan;99002.63;5011101;28;20390;-79
2022/05/30 05:34:35;;;;;;;6.82;6.28;;;;;;;15.08;nan;99004.25;5010935;28;20084;-79
2022/05/30 05:37:01;;;;;;;6.40;5.80;;;;;;;15.14;nan;99008.81;5012891;28;20034;-78
2022/05/30 05:39:31;;;;;;;7.55;6.57;;;;;;;15.24;nan;99002.41;5011390;28;20088;-78
2022/05/30 05:42:08;;;;;;;7.47;6.82;;;;;;;15.27;nan;99008.16;5013163;28;20026;-79
2022/05/30 05:44:37;;;;;;;6.18;5.63;;;;;;;15.32;nan;99010.25;4990018;28;20397;-79
2022/05/30 05:47:03;;;;;;;6.45;5.95;;;;;;;15.33;nan;99017.22;5011459;28;20037;-78
2022/05/30 05:49:30;;;;;;;6.10;5.00;;;;;;;15.33;nan;99011.91;5007335;28;20490;-78
2022/05/30 05:51:56;;;;;;;5.72;5.15;;;;;;;15.38;nan;99010.34;5015021;28;20037;-79
2022/05/30 05:54:25;;;;;;;5.78;5.25;;;;;;;15.35;nan;99009.91;5010479;28;20117;-78
2022/05/30 05:56:53;;;;;;;6.13;5.63;;;;;;;15.27;nan;99007.34;5012147;28;20041;-78
2022/05/30 05:59:33;;;;;;;6.60;6.05;;;;;;;15.28;nan;99009.81;5011372;28;20347;-80
2022/05/30 06:01:58;;;;;;;6.32;5.82;;;;;;;15.36;nan;99008.91;5012280;28;20430;-79
2022/05/30 06:04:24;;;;;;;7.65;6.00;;;;;;;15.44;nan;98998.97;5012524;28;20109;-80
2022/05/30 06:07:01;;;;;;;5.43;4.93;;;;;;;15.49;nan;99009.88;5010551;28;20066;-81
2022/05/30 06:09:46;;;;;;;5.72;5.25;;;;;;;15.52;nan;99008.72;5010890;28;20509;-80
2022/05/30 06:12:16;;;;;;;4.78;4.35;;;;;;;15.63;nan;99016.19;5011425;28;20501;-80
2022/05/30 06:14:42;;;;;;;5.57;4.80;;;;;;;15.73;nan;99018.53;5011651;28;20049;-79
2022/05/30 06:17:08;;;;;;;5.25;4.85;;;;;;;15.73;nan;99019.38;5010612;28;20033;-79
2022/05/30 06:19:33;;;;;;;5.15;4.63;;;;;;;15.71;nan;99015.25;5010267;28;20033;-78
2022/05/30 06:21:59;;;;;;;5.55;5.00;;;;;;;15.71;nan;99015.25;4994127;28;20176;-78
2022/05/30 06:24:25;;;;;;;5.25;4.60;;;;;;;15.69;nan;99033.22;5009605;28;20522;-78
2022/05/30 06:27:11;;;;;;;5.43;5.03;;;;;;;15.56;nan;99023.25;5006844;28;20513;-80
2022/05/30 06:29:56;;;;;;;6.05;5.13;;;;;;;15.40;nan;99023.47;5010588;28;20096;-80
2022/05/30 06:32:22;;;;;;;5.97;5.05;;;;;;;15.46;nan;99018.22;5010651;28;20468;-78
2022/05/30 06:35:06;;;;;;;5.47;4.97;;;;;;;15.61;nan;99020.88;5009635;28;20192;-78
2022/05/30 06:37:34;;;;;;;6.43;5.18;;;;;;;15.76;nan;99023.50;5008893;28;20037;-78
2022/05/30 06:40:00;;;;;;;7.03;4.75;;;;;;;15.90;nan;99017.31;4993114;28;20446;-78
2022/05/30 06:42:38;;;;;;;4.57;4.18;;;;;;;16.03;nan;99022.72;5005993;28;20053;-79
2022/05/30 06:45:32;;;;;;;5.70;4.38;;;;;;;16.12;nan;99023.44;5006475;28;20045;-81
2022/05/30 06:48:18;;;;;;;4.65;4.28;;;;;;;16.19;nan;99029.66;5008119;28;20100;-78
2022/05/30 06:50:50;;;;;;;4.68;4.28;;;;;;;16.14;nan;99029.41;5009532;28;20057;-79
2022/05/30 06:53:16;;;;;;;5.15;4.82;;;;;;;16.07;nan;99020.53;5009098;28;20076;-78
2022/05/30 06:55:41;;;;;;;4.38;4.07;;;;;;;16.07;nan;99021.38;5010590;28;20069;-78
2022/05/30 06:58:13;;;;;;;5.13;4.20;;;;;;;16.03;nan;99021.91;5008745;28;20030;-78
2022/05/30 07:00:44;;;;;;;4.35;3.95;;;;;;;16.04;nan;99018.25;4992649;28;20447;-79
2022/05/30 07:03:37;;;;;;;4.55;4.00;;;;;;;16.09;nan;99024.63;5005653;28;20061;-80
2022/05/30 07:06:27;;;;;;;4.68;4.10;;;;;;;16.08;nan;99028.31;5010151;28;20053;-79
2022/05/30 07:09:12;;;;;;;5.50;4.25;;;;;;;16.01;nan;99037.25;5007895;28;20099;-81
2022/05/30 07:11:45;;;;;;;5.68;3.97;;;;;;;16.08;nan;99033.63;5010303;28;20033;-78
2022/05/30 07:14:16;;;;;;;4.68;4.28;;;;;;;16.22;nan;99038.06;5007966;28;20045;-77
2022/05/30 07:16:43;;;;;;;4.68;4.13;;;;;;;16.31;nan;99028.97;5008839;28;20037;-77
2022/05/30 07:19:09;;;;;;;5.55;4.40;;;;;;;16.33;nan;99036.72;5008972;28;20034;-80
2022/05/30 07:21:41;;;;;;;4.88;4.38;;;;;;;16.34;nan;99033.06;5009104;28;20097;-78
2022/05/30 07:24:27;;;;;;;3.88;3.58;;;;;;;16.51;nan;99039.75;5010125;28;20076;-80
2022/05/30 07:27:11;;;;;;;4.30;4.00;;;;;;;16.64;nan;99042.56;5007548;28;20049;-79
2022/05/30 07:29:55;;;;;;;5.05;3.78;;;;;;;16.72;nan;99046.91;5009543;28;20049;-79
2022/05/30 07:32:39;;;;;;;4.53;3.92;;;;;;;16.82;nan;99046.56;5007294;28;20096;-79
2022/05/30 07:35:23;;;;;;;4.97;4.15;;;;;;;16.81;nan;99045.72;5010039;28;20064;-79
2022/05/30 07:38:07;;;;;;;4.00;3.60;;;;;;;16.90;nan;99049.09;5007167;28;20135;-79
2022/05/30 07:40:55;;;;;;;4.70;4.40;;;;;;;16.87;nan;99049.47;5009598;28;20046;-79
2022/05/30 07:43:27;;;;;;;4.63;4.30;;;;;;;17.00;nan;99050.38;5009932;28;20049;-78
2022/05/30 07:46:09;;;;;;;5.15;4.30;;;;;;;17.12;nan;99047.97;4993150;28;20026;-78
2022/05/30 07:48:51;;;;;;;4.80;4.50;;;;;;;17.16;nan;99054.56;5010668;28;20172;-80
2022/05/30 07:51:36;;;;;;;4.97;4.53;;;;;;;17.24;nan;99067.75;5010710;28;20041;-79
2022/05/30 07:54:34;;;;;;;4.80;4.45;;;;;;;17.26;nan;99068.34;5009849;28;20049;-79
2022/05/30 07:57:07;;;;;;;5.10;4.57;;;;;;;17.35;nan;99058.34;5012825;28;20116;-79
2022/05/30 07:59:35;;;;;;;5.05;4.57;;;;;;;17.47;nan;99068.25;5011908;28;20119;-79
2022/05/30 08:02:07;;;;;;;5.22;4.47;;;;;;;17.56;nan;99064.38;4992681;28;20035;-79
2022/05/30 08:04:34;;;;;;;;;;;;;;;17.67;nan;99063.00;5012595;28;20088;-80
2022/05/30 08:07:20;;;;;;;5.20;4.80;;;;;;;17.80;nan;99059.56;5020660;28;19929;-80
2022/05/30 08:10:21;;;;;;;7.63;5.35;;;;;;;17.90;nan;99068.03;5015645;28;20041;-79
2022/05/30 08:12:49;;;;;;;4.43;4.13;;;;;;;17.86;nan;99061.44;5012350;28;20087;-79
2022/05/30 08:15:33;;;;;;;4.55;4.25;;;;;;;17.88;nan;99070.06;5009180;28;20135;-80
2022/05/30 08:18:14;;;;;;;4.82;4.43;;;;;;;17.91;nan;99075.00;5011870;28;20053;-79
2022/05/30 08:20:40;;;;;;;5.22;4.82;;;;;;;17.89;nan;99066.38;5011994;28;20022;-80
2022/05/30 08:23:07;;;;;;;6.35;4.72;;;;;;;17.62;nan;99064.63;5012113;28;20097;-79
2022/05/30 08:25:33;;;;;;;5.07;4.70;;;;;;;17.74;nan;99065.72;5012027;28;20034;-79
2022/05/30 08:27:58;;;;;;;5.00;4.60;;;;;;;17.92;nan;99071.31;4995964;28;20030;-80
2022/05/30 08:30:24;;;;;;;5.40;4.80;;;;;;;18.12;nan;99066.03;5012582;28;20106;-80
2022/05/30 08:33:18;;;;;;;5.13;4.78;;;;;;;18.30;nan;99064.41;5012650;28;20037;-80
2022/05/30 08:35:47;;;;;;;7.10;5.10;;;;;;;18.33;nan;99068.50;5013290;28;20037;-80
2022/05/30 08:38:14;;;;;;;5.50;4.60;;;;;;;18.27;nan;99064.81;5011947;28;20037;-80
2022/05/30 08:43:37;;;;;;;14.35;4.85;;;;;;;18.15;nan;99074.44;5007916;28;20037;-78
2022/05/30 08:46:12;;;;;;;4.88;4.20;;;;;;;18.09;nan;99077.09;5010277;28;20042;-79
2022/05/30 08:49:00;;;;;;;4.93;4.53;;;;;;;18.19;nan;99075.69;5010857;28;20434;-79
2022/05/30 08:51:54;;;;;;;5.10;4.45;;;;;;;18.27;nan;99070.16;5011403;28;20073;-79
2022/05/30 08:54:40;;;;;;;5.00;4.45;;;;;;;18.49;nan;99084.16;5010226;28;20043;-79
2022/05/30 08:57:35;;;;;;;5.22;4.22;;;;;;;18.68;nan;99083.34;5010049;28;20491;-79
2022/05/30 09:00:28;;;;;;;7.90;4.82;;;;;;;18.81;nan;99083.34;5007348;28;20416;-79
2022/05/30 09:03:36;;;;;;;;;;;;;;;18.87;nan;99087.03;5011841;28;20096;-79
2022/05/30 09:06:22;;;;;;;4.55;4.25;;;;;;;18.76;nan;99085.00;5008527;28;20382;-78
2022/05/30 09:08:54;;;;;;;6.63;4.30;;;;;;;18.71;nan;99087.47;5010108;28;20121;-79
2022/05/30 09:11:48;;;;;;;4.05;3.75;;;;;;;18.65;nan;99089.13;5009507;28;20129;-78
2022/05/30 09:14:36;;;;;;;4.15;3.75;;;;;;;18.66;nan;99095.28;5010738;28;20069;-79
2022/05/30 09:17:05;;;;;;;4.22;3.30;;;;;;;18.68;nan;99093.22;5007191;28;20030;-79
2022/05/30 09:19:31;;;;;;;3.42;3.22;;;;;;;18.64;nan;99092.81;5010656;28;20040;-78
2022/05/30 09:22:03;;;;;;;3.17;2.97;;;;;;;18.63;nan;99095.69;5011128;28;20029;-78
2022/05/30 09:24:40;;;;;;;4.65;3.67;;;;;;;18.53;nan;99092.56;5007362;28;20034;-79
2022/05/30 09:27:05;;;;;;;;;;;;;;;18.59;nan;99097.97;5008168;28;20465;-79
2022/05/30 09:29:52;;;;;;;3.33;3.03;;;;;;;18.63;nan;99090.34;5010439;28;19963;-79
2022/05/30 09:32:46;;;;;;;3.20;2.80;;;;;;;18.70;nan;99097.34;5008706;28;20131;-79
2022/05/30 09:35:49;;;;;;;3.38;3.15;;;;;;;18.84;nan;99102.69;5010650;28;20038;-78
2022/05/30 09:38:49;;;;;;;3.17;2.42;;;;;;;18.92;nan;99089.09;5009932;28;20497;-78
2022/05/30 09:41:30;;;;;;;2.50;2.30;;;;;;;19.08;nan;99100.19;5010759;28;20037;-78
2022/05/30 09:44:17;;;;;;;2.97;2.50;;;;;;;19.25;nan;99099.75;5008732;28;20034;-78
2022/05/30 09:46:52;;;;;;;2.60;2.45;;;;;;;19.33;nan;99103.00;5006697;28;20121;-78
2022/05/30 09:49:36;;;;;;;6.40;2.75;;;;;;;19.42;nan;99101.75;5008408;28;20053;-78
2022/05/30 09:52:19;;;;;;;3.70;2.80;;;;;;;19.66;nan;99099.44;5012045;28;20030;-79
2022/05/30 09:54:45;;;;;;;3.30;2.83;;;;;;;19.70;nan;99103.34;5009830;28;20037;-79
2022/05/30 09:57:16;;;;;;;5.55;2.70;;;;;;;19.72;nan;99104.78;5012167;28;20554;-79
2022/05/30 10:00:16;;;;;;;2.95;2.75;;;;;;;19.78;nan;99087.88;5012155;28;20104;-79
2022/05/30 10:02:45;;;;;;;2.70;2.50;;;;;;;19.86;nan;99092.94;5009900;28;20038;-77
2022/05/30 10:05:20;;;;;;;2.95;2.75;;;;;;;19.79;nan;99096.72;5010334;28;20518;-79
2022/05/30 10:08:19;;;;;;;2.47;2.28;;;;;;;19.86;nan;99092.94;5010468;28;20060;-79
2022/05/30 10:10:54;;;;;;;3.03;2.30;;;;;;;19.85;nan;99096.66;5008896;28;20112;-79
2022/05/30 10:13:40;;;;;;;4.15;2.42;;;;;;;19.89;nan;99099.75;5010006;28;20049;-79
2022/05/30 10:16:30;;;;;;;3.03;2.45;;;;;;;19.94;nan;99095.41;4633992;23;10000211;-73
2022/05/30 10:18:59;;;;;;;3.58;2.00;;;;;;;19.90;nan;99090.69;4977496;28;20762;-76
2022/05/30 10:28:14;;;;;;;2.42;2.22;;;;;;;19.88;nan;99090.06;4961396;28;20093;-76
2022/05/30 10:28:21;;;;;;;2.92;2.25;;;;;;;19.77;nan;99099.59;4979523;28;20043;-76
2022/05/30 10:31:28;;;;;;;2.88;2.60;;;;;;;19.77;nan;99086.22;4972988;28;20044;-75
2022/05/30 10:34:13;;;;;;;3.95;2.85;;;;;;;19.90;nan;99094.19;4962499;28;20039;-76
2022/05/30 10:36:51;;;;;;;3.58;2.40;;;;;;;20.12;nan;99088.50;4975538;28;20035;-75
2022/05/30 10:39:46;;;;;;;2.95;2.20;;;;;;;20.22;nan;99102.22;4960420;28;20046;-77
2022/05/30 10:42:27;;;;;;;3.15;2.80;;;;;;;20.17;nan;99110.09;4976179;28;20122;-78
2022/05/30 10:45:12;;;;;;;3.20;3.00;;;;;;;20.08;nan;99106.88;4960971;28;20407;-77
2022/05/30 10:47:45;;;;;;;4.63;2.55;;;;;;;20.31;nan;99111.69;4979228;28;20487;-76
2022/05/30 10:50:21;;;;;;;2.70;2.50;;;;;;;20.51;nan;99117.72;4960108;28;20070;-76
2022/05/30 10:53:25;;;;;;;2.40;2.30;;;;;;;20.64;nan;99106.91;4960453;28;20141;-77
2022/05/30 10:56:42;;;;;;;2.95;2.72;;;;;;;20.83;nan;99105.94;4963582;28;20079;-75
2022/05/30 10:59:24;;;;;;;2.83;2.63;;;;;;;21.04;nan;99095.84;4956986;28;20054;-78
2022/05/30 11:02:03;;;;;;;2.63;2.50;;;;;;;21.22;nan;99098.59;4960296;28;20035;-75
2022/05/30 11:04:38;;;;;;;3.20;2.90;;;;;;;21.38;nan;99103.38;4962870;28;20102;-76
2022/05/30 11:07:24;;;;;;;4.68;3.00;;;;;;;21.44;nan;99096.31;4965070;28;20085;-77
2022/05/30 11:10:15;;;;;;;4.38;3.00;;;;;;;21.52;nan;99098.66;4976946;28;20114;-77
2022/05/30 11:12:45;;;;;;;3.55;3.35;;;;;;;21.38;nan;99100.69;4974614;28;20042;-77
2022/05/30 11:15:22;;;;;;;3.65;3.20;;;;;;;21.26;nan;99101.66;4960841;28;20057;-76
2022/05/30 11:18:29;;;;;;;3.60;3.30;;;;;;;21.29;nan;99099.34;4964297;28;20141;-77
2022/05/30 11:21:31;;;;;;;5.43;3.80;;;;;;;21.28;nan;99096.88;4960727;28;20408;-77
2022/05/30 11:24:01;;;;;;;6.88;4.38;;;;;;;21.30;nan;99100.16;4958609;28;20039;-76
2022/05/30 11:26:32;;;;;;;3.72;3.42;;;;;;;21.39;nan;99098.81;4962018;28;20073;-75
2022/05/30 11:29:06;;;;;;;4.20;4.00;;;;;;;21.32;nan;99109.66;4960241;28;20031;-75
2022/05/30 11:31:58;;;;;;;3.35;3.10;;;;;;;21.24;nan;99107.25;4959574;28;20031;-75
2022/05/30 11:34:39;;;;;;;5.35;4.93;;;;;;;21.05;nan;99108.22;4966344;28;20042;-77
2022/05/30 11:37:23;;;;;;;5.13;4.82;;;;;;;20.82;nan;99106.97;4959813;28;20042;-77
2022/05/30 11:40:25;;;;;;;6.65;5.18;;;;;;;20.90;nan;99113.13;4960925;28;20078;-76
2022/05/30 11:43:00;;;;;;;5.75;4.13;;;;;;;20.92;nan;99113.69;4961549;28;20040;-77
2022/05/30 11:45:51;;;;;;;4.35;4.05;;;;;;;20.92;nan;99108.31;4959076;28;20043;-76
2022/05/30 11:48:43;;;;;;;6.57;4.60;;;;;;;21.04;nan;99106.56;4961093;28;20550;-76
2022/05/30 11:51:22;;;;;;;4.40;4.00;;;;;;;21.16;nan;99104.84;4960013;28;20031;-77
2022/05/30 11:54:18;;;;;;;4.35;3.97;;;;;;;21.32;nan;99106.97;4961569;28;20027;-77
2022/05/30 11:56:52;;;;;;;4.60;4.30;;;;;;;21.37;nan;99104.44;4963758;28;20082;-77
2022/05/30 12:00:01;;;;;;;4.78;4.47;;;;;;;21.33;nan;99105.88;4959921;28;20059;-74
2022/05/30 12:02:50;;;;;;;5.68;4.57;;;;;;;21.36;nan;99105.47;4977242;28;20566;-75
2022/05/30 12:05:57;;;;;;;5.55;4.45;;;;;;;21.32;nan;99106.97;4959040;28;20093;-76
2022/05/30 12:08:37;;;;;;;4.10;3.80;;;;;;;;;;4957542;28;20385;-77
2022/05/30 12:11:27;;;;;;;4.60;4.20;;;;;;;21.12;nan;99103.63;4959491;28;20049;-75
2022/05/30 12:14:04;;;;;;;4.40;4.00;;;;;;;21.00;nan;99110.75;4962356;28;20464;-77
2022/05/30 12:16:49;;;;;;;4.40;4.10;;;;;;;20.98;nan;99104.78;4962278;28;20491;-78
2022/05/30 12:25:22;;;;;;;3.50;3.30;;;;;;;20.93;nan;99108.13;4967835;28;20086;-77
2022/05/30 12:27:48;;;;;;;4.13;3.83;;;;;;;21.04;nan;99107.41;4961858;28;20119;-77
2022/05/30 12:30:33;;;;;;;5.00;4.65;;;;;;;21.03;nan;99105.75;4960443;28;20122;-77
2022/05/30 12:32:59;;;;;;;4.75;4.45;;;;;;;20.99;nan;99109.09;4959780;28;20039;-76
2022/05/30 12:35:26;;;;;;;4.90;4.40;;;;;;;20.94;nan;99108.94;4963985;28;20114;-77
2022/05/30 12:38:04;;;;;;;5.55;4.35;;;;;;;20.98;nan;99115.50;4963344;28;20379;-76
2022/05/30 12:40:34;;;;;;;4.50;4.10;;;;;;;20.99;nan;99109.09;4966086;28;20190;-76
2022/05/30 12:43:13;;;;;;;4.30;3.90;;;;;;;20.96;nan;99109.56;4962710;28;20041;-77
2022/05/30 12:45:57;;;;;;;4.32;4.03;;;;;;;20.96;nan;99107.69;4962654;28;20043;-77
2022/05/30 12:48:25;;;;;;;4.55;4.25;;;;;;;20.94;nan;99106.25;4963836;28;20034;-77
2022/05/30 12:50:51;;;;;;;5.57;4.38;;;;;;;20.97;nan;99111.19;4964897;28;20122;-77